Cap Finistere — FLSO — position and weather

sailwx.info

Track history (hours):
 
Tides and Currents Weather Stations Pressure Air Temp Water Temp Dewpoint Dewpoint Depression Visibility Wind Speed Wind Dir Waves Ship Positions

Cap Finistere

Last reported at 2017-Nov-24 13:00 UTC. Time now 2017-Nov-24 13:03 UTC.
Position N 50°37' W 001°01'.

Length 204 m; draft 6.8 m.

Type: Passenger vessel. MMSI: 226318000.

Date/timePositionNaut miles runAvg speedWind from/ knotsBaromVisibWave heightAir tempDewpointWater temp
2017-Nov-24 13:00N 50°37' W 001°01'1020.4
2017-Nov-24 12:30N 50°30' W 001°14'1522.2
2017-Nov-24 11:49N 50°21' W 001°33'722.3
2017-Nov-24 11:30N 50°17' W 001°42'1122.4
2017-Nov-24 11:00N 50°09' W 001°54'1222.5
2017-Nov-24 10:28N 50°02' W 002°10'1423.2
2017-Nov-24 09:53N 49°56' W 002°29'9021.1
2017-Nov-24 05:36N 48°58' W 004°15'220.9
2017-Nov-24 05:30N 48°57' W 004°18'1121.0
2017-Nov-24 05:00N 48°50' W 004°29'1021.1
2017-Nov-24 04:31N 48°42' W 004°41'1121.2
2017-Nov-24 04:00N 48°34' W 004°52'918.8
2017-Nov-24 03:31N 48°27' W 005°01'816.8
2017-Nov-24 03:00N 48°20' W 005°07'1223.3
2017-Nov-24 02:30N 48°08' W 005°10'1122.7
2017-Nov-24 02:00N 47°57' W 005°09'1223.1
2017-Nov-24 01:30N 47°46' W 005°05'21925.1
2017-Nov-23 16:47N 44°12' W 003°58'725.8
2017-Nov-23 16:30N 44°05' W 003°56'1326.0
2017-Nov-23 16:01N 43°52' W 003°52'1326.0
2017-Nov-23 15:31N 43°39' W 003°49'1223.1
2017-Nov-23 15:00N 43°28' W 003°45'2 2.6
2017-Nov-23 14:08N 43°27' W 003°48'0 0.0
2017-Nov-23 14:00N 43°27' W 003°48'0 0.0
2017-Nov-23 13:23N 43°27' W 003°48'0 0.0
2017-Nov-23 12:58N 43°27' W 003°48'0 0.0
2017-Nov-23 07:21N 43°27' W 003°48'0 0.0
2017-Nov-23 06:57N 43°27' W 003°48'0 0.0
2017-Nov-23 06:30N 43°27' W 003°48'0 0.0
2017-Nov-23 06:00N 43°27' W 003°48'0 0.0
2017-Nov-23 05:29N 43°27' W 003°48'0 0.0
2017-Nov-23 05:00N 43°27' W 003°48'0 0.0
2017-Nov-23 04:30N 43°27' W 003°48'0 0.0
2017-Nov-23 04:00N 43°27' W 003°48'0 0.0
2017-Nov-23 03:30N 43°27' W 003°48'0 0.0
2017-Nov-23 02:59N 43°27' W 003°48'0 0.0
2017-Nov-22 20:35N 43°27' W 003°48'0 0.0
2017-Nov-22 20:11N 43°27' W 003°48'0 0.0
2017-Nov-22 20:00N 43°27' W 003°48'0 0.0
2017-Nov-22 19:28N 43°27' W 003°48'  
2017-Nov-16 05:33N 43°24' W 003°49'0 0.0
2017-Nov-16 05:30N 43°24' W 003°49'0 0.0
2017-Nov-16 04:59N 43°24' W 003°49'0 0.0
2017-Nov-16 03:11N 43°24' W 003°49'  
Track history (hours):
 
Tides and Currents Weather Stations Pressure Air Temp Water Temp Dewpoint Dewpoint Depression Visibility Wind Speed Wind Dir Waves Ship Positions

Cap Finistere

Last reported at 2017-Nov-24 13:00 UTC. Time now 2017-Nov-24 13:03 UTC.
Position N 50°37' W 001°01'.

Length 204 m; draft 6.8 m.

Type: Passenger vessel. MMSI: 226318000.

Date/timePositionNaut miles runAvg speedWind from/ knotsBaromVisibWave heightAir tempDewpointWater temp
2017-Nov-24 13:00N 50°37' W 001°01'1020.4
2017-Nov-24 12:30N 50°30' W 001°14'1522.2
2017-Nov-24 11:49N 50°21' W 001°33'722.3
2017-Nov-24 11:30N 50°17' W 001°42'1122.4
2017-Nov-24 11:00N 50°09' W 001°54'1222.5
2017-Nov-24 10:28N 50°02' W 002°10'1423.2
2017-Nov-24 09:53N 49°56' W 002°29'9021.1
2017-Nov-24 05:36N 48°58' W 004°15'220.9
2017-Nov-24 05:30N 48°57' W 004°18'1121.0
2017-Nov-24 05:00N 48°50' W 004°29'1021.1
2017-Nov-24 04:31N 48°42' W 004°41'1121.2
2017-Nov-24 04:00N 48°34' W 004°52'918.8
2017-Nov-24 03:31N 48°27' W 005°01'816.8
2017-Nov-24 03:00N 48°20' W 005°07'1223.3
2017-Nov-24 02:30N 48°08' W 005°10'1122.7
2017-Nov-24 02:00N 47°57' W 005°09'1223.1
2017-Nov-24 01:30N 47°46' W 005°05'21925.1
2017-Nov-23 16:47N 44°12' W 003°58'725.8
2017-Nov-23 16:30N 44°05' W 003°56'1326.0
2017-Nov-23 16:01N 43°52' W 003°52'1326.0
2017-Nov-23 15:31N 43°39' W 003°49'1223.1
2017-Nov-23 15:00N 43°28' W 003°45'2 2.6
2017-Nov-23 14:08N 43°27' W 003°48'0 0.0
2017-Nov-23 14:00N 43°27' W 003°48'0 0.0
2017-Nov-23 13:23N 43°27' W 003°48'0 0.0
2017-Nov-23 12:58N 43°27' W 003°48'0 0.0
2017-Nov-23 07:21N 43°27' W 003°48'0 0.0
2017-Nov-23 06:57N 43°27' W 003°48'0 0.0
2017-Nov-23 06:30N 43°27' W 003°48'0 0.0
2017-Nov-23 06:00N 43°27' W 003°48'0 0.0
2017-Nov-23 05:29N 43°27' W 003°48'0 0.0
2017-Nov-23 05:00N 43°27' W 003°48'0 0.0
2017-Nov-23 04:30N 43°27' W 003°48'0 0.0
2017-Nov-23 04:00N 43°27' W 003°48'0 0.0
2017-Nov-23 03:30N 43°27' W 003°48'0 0.0
2017-Nov-23 02:59N 43°27' W 003°48'0 0.0
2017-Nov-22 20:35N 43°27' W 003°48'0 0.0
2017-Nov-22 20:11N 43°27' W 003°48'0 0.0
2017-Nov-22 20:00N 43°27' W 003°48'0 0.0
2017-Nov-22 19:28N 43°27' W 003°48'  
2017-Nov-16 05:33N 43°24' W 003°49'0 0.0
2017-Nov-16 05:30N 43°24' W 003°49'0 0.0
2017-Nov-16 04:59N 43°24' W 003°49'0 0.0
2017-Nov-16 03:11N 43°24' W 003°49'  

Dump ship's entire track history